Time;durP1;ratioP1;P1;durP2;ratioP2;P2;SDS_P1;SDS_P2;PMS_P1;PMS_P2;Temp;Humidity;BMP_temperature;BMP_pressure;BME280_temperature;BME280_humidity;BME280_pressure;Samples;Min_cycle;Max_cycle;Signal;HPM_P1;HPM_P2
2023/09/05 00:02:17;;;;;;;5.75;3.85;;;19.00;99.90;;;;;;5055127;28;20175;-52
2023/09/05 00:04:44;;;;;;;5.28;4.40;;;19.00;99.90;;;;;;5055350;28;20215;-52
2023/09/05 00:07:11;;;;;;;4.80;3.88;;;18.80;99.90;;;;;;5055253;28;20190;-52
2023/09/05 00:09:36;;;;;;;4.50;3.67;;;18.70;99.90;;;;;;5054780;28;20536;-54
2023/09/05 00:12:06;;;;;;;4.97;3.85;;;18.80;99.90;;;;;;5054477;28;20175;-53
2023/09/05 00:14:32;;;;;;;4.55;3.97;;;18.80;99.90;;;;;;5054990;28;20164;-53
2023/09/05 00:16:58;;;;;;;3.95;3.60;;;18.70;99.90;;;;;;5054915;28;20167;-53
2023/09/05 00:19:23;;;;;;;4.78;4.00;;;18.50;99.90;;;;;;5054865;28;20698;-53
2023/09/05 00:21:49;;;;;;;4.40;4.00;;;18.60;99.90;;;;;;5055065;28;20207;-53
2023/09/05 00:24:27;;;;;;;5.13;4.50;;;18.60;99.90;;;;;;5054945;28;20254;-51
2023/09/05 00:26:54;;;;;;;4.65;4.25;;;18.60;99.90;;;;;;5054941;28;20576;-49
2023/09/05 00:29:19;;;;;;;4.78;4.32;;;18.50;99.90;;;;;;5054694;28;20187;-50
2023/09/05 00:31:48;;;;;;;4.57;4.18;;;18.40;99.90;;;;;;5054602;28;20177;-48
2023/09/05 00:34:14;;;;;;;5.68;4.47;;;18.50;99.90;;;;;;5054797;28;20229;-48
2023/09/05 00:36:40;;;;;;;4.90;4.35;;;18.50;99.90;;;;;;5054663;28;20575;-52
2023/09/05 00:39:06;;;;;;;4.72;4.20;;;18.40;99.90;;;;;;5054528;28;20207;-50
2023/09/05 00:41:32;;;;;;;5.90;4.32;;;18.50;99.90;;;;;;5054639;28;20179;-50
2023/09/05 00:43:59;;;;;;;5.30;4.28;;;18.50;99.90;;;;;;5054422;28;20536;-49
2023/09/05 00:46:26;;;;;;;4.55;4.15;;;18.50;99.90;;;;;;5054524;28;20172;-52
2023/09/05 00:48:52;;;;;;;5.32;4.57;;;18.40;99.90;;;;;;5054335;28;20238;-52
2023/09/05 00:51:19;;;;;;;5.18;4.60;;;18.40;99.90;;;;;;5054336;28;20240;-49
2023/09/05 00:53:45;;;;;;;5.60;5.07;;;18.40;99.90;;;;;;5054243;28;20179;-53
2023/09/05 00:56:11;;;;;;;6.45;4.97;;;18.40;99.90;;;;;;5054396;28;20653;-51
2023/09/05 00:58:36;;;;;;;5.57;4.93;;;18.30;99.90;;;;;;5054048;28;20580;-50
2023/09/05 01:01:02;;;;;;;5.30;4.68;;;18.40;99.90;;;;;;5054330;28;21497;-49
2023/09/05 01:03:28;;;;;;;6.57;4.78;;;18.30;99.90;;;;;;5054489;28;20186;-52
2023/09/05 01:05:59;;;;;;;5.28;4.63;;;18.30;99.90;;;;;;5054158;28;20600;-51
2023/09/05 01:08:31;;;;;;;6.53;4.68;;;18.20;99.90;;;;;;5054508;28;20262;-53
2023/09/05 01:11:08;;;;;;;6.10;4.80;;;18.20;99.90;;;;;;5053937;28;20171;-51
2023/09/05 01:13:36;;;;;;;6.38;4.95;;;18.20;99.90;;;;;;5053888;28;20656;-48
2023/09/05 01:16:03;;;;;;;6.70;4.93;;;18.10;99.90;;;;;;5053948;28;20175;-48
2023/09/05 01:18:33;;;;;;;5.45;4.55;;;18.10;99.90;;;;;;5053819;28;20290;-53
2023/09/05 01:21:35;;;;;;;7.22;4.70;;;18.20;99.90;;;;;;5053590;28;20227;-53
2023/09/05 01:24:20;;;;;;;6.00;4.80;;;18.20;99.90;;;;;;5054181;28;20170;-52
2023/09/05 01:26:46;;;;;;;7.10;5.07;;;18.20;99.90;;;;;;5053890;28;20167;-49
2023/09/05 01:29:15;;;;;;;6.75;5.20;;;18.10;99.90;;;;;;5053660;28;20262;-49
2023/09/05 01:31:41;;;;;;;7.13;5.88;;;18.20;99.90;;;;;;5053515;28;20172;-51
2023/09/05 01:34:07;;;;;;;6.38;5.78;;;18.10;99.90;;;;;;5053468;28;20529;-53
2023/09/05 01:36:33;;;;;;;6.05;5.10;;;18.00;99.90;;;;;;5053616;28;20183;-49
2023/09/05 01:39:04;;;;;;;6.03;5.43;;;18.00;99.90;;;;;;5053593;28;20217;-50
2023/09/05 01:41:30;;;;;;;6.28;5.68;;;17.90;99.90;;;;;;5053552;28;20201;-49
2023/09/05 01:43:55;;;;;;;6.20;5.07;;;17.90;99.90;;;;;;5053500;28;20175;-51
2023/09/05 01:46:21;;;;;;;6.10;5.50;;;17.90;99.90;;;;;;5053430;28;20179;-49
2023/09/05 01:48:47;;;;;;;6.18;5.50;;;17.90;99.90;;;;;;5053333;28;20187;-52
2023/09/05 01:51:12;;;;;;;7.65;5.65;;;17.90;99.90;;;;;;5053534;28;20178;-52
2023/09/05 01:53:38;;;;;;;6.72;5.30;;;17.90;99.90;;;;;;5053659;28;20182;-49
2023/09/05 01:56:03;;;;;;;5.45;4.95;;;17.90;99.90;;;;;;5053619;28;20190;-49
2023/09/05 01:58:29;;;;;;;5.82;5.22;;;17.90;99.90;;;;;;5053148;28;20707;-50
2023/09/05 02:00:55;;;;;;;6.35;5.30;;;17.90;99.90;;;;;;5053427;28;20186;-53
2023/09/05 02:03:20;;;;;;;6.28;5.43;;;17.90;99.90;;;;;;5053080;28;20175;-51
2023/09/05 02:05:46;;;;;;;5.72;5.22;;;17.80;99.90;;;;;;5053313;28;20176;-53
2023/09/05 02:08:11;;;;;;;7.95;5.70;;;17.80;99.90;;;;;;5053210;28;20175;-50
2023/09/05 02:10:37;;;;;;;6.55;4.88;;;17.70;99.90;;;;;;5053136;28;20179;-50
2023/09/05 02:13:03;;;;;;;7.78;5.22;;;17.70;99.90;;;;;;5053140;28;20525;-51
2023/09/05 02:15:28;;;;;;;5.90;5.22;;;17.80;99.90;;;;;;5052997;28;20175;-53
2023/09/05 02:17:55;;;;;;;7.55;5.38;;;17.80;99.90;;;;;;5052975;28;20692;-49
2023/09/05 02:20:22;;;;;;;7.20;5.28;;;17.80;99.90;;;;;;5052813;28;20308;-52
2023/09/05 02:22:48;;;;;;;5.72;4.97;;;17.60;99.90;;;;;;5053085;28;20506;-49
2023/09/05 02:25:13;;;;;;;6.82;5.10;;;17.70;99.90;;;;;;5053066;28;20186;-52
2023/09/05 02:27:39;;;;;;;6.80;4.88;;;17.60;99.90;;;;;;5053311;28;20180;-52
2023/09/05 02:30:07;;;;;;;5.75;5.25;;;17.70;99.90;;;;;;5052884;28;20171;-51
2023/09/05 02:32:33;;;;;;;6.38;4.97;;;17.70;99.90;;;;;;5052803;28;20660;-52
2023/09/05 02:34:59;;;;;;;5.93;5.32;;;17.70;99.90;;;;;;5056107;28;20214;-50
2023/09/05 02:37:25;;;;;;;7.85;5.50;;;17.70;99.90;;;;;;5056960;28;20179;-49
2023/09/05 02:39:51;;;;;;;6.30;5.38;;;17.70;99.90;;;;;;5056851;28;20668;-48
2023/09/05 02:42:17;;;;;;;5.55;5.05;;;17.70;99.90;;;;;;5056782;28;20270;-49
2023/09/05 02:44:42;;;;;;;6.80;4.95;;;17.70;99.90;;;;;;5056701;28;20254;-53
2023/09/05 02:47:08;;;;;;;6.40;4.93;;;17.80;99.90;;;;;;5056581;28;20233;-53
2023/09/05 02:49:33;;;;;;;6.57;4.85;;;17.90;99.90;;;;;;5056763;28;20325;-49
2023/09/05 02:51:59;;;;;;;5.53;4.90;;;17.90;99.90;;;;;;5056802;28;20171;-50
2023/09/05 02:54:28;;;;;;;6.13;5.63;;;17.90;99.90;;;;;;5056856;28;20167;-53
2023/09/05 02:56:54;;;;;;;7.30;5.15;;;17.90;99.90;;;;;;5056464;28;20171;-52
2023/09/05 02:59:21;;;;;;;5.15;4.65;;;17.90;99.90;;;;;;5056318;28;20553;-52
2023/09/05 03:01:46;;;;;;;7.28;5.07;;;17.80;99.90;;;;;;5056376;28;20179;-49
2023/09/05 03:04:14;;;;;;;7.10;5.10;;;17.80;99.90;;;;;;5056498;28;20171;-52
2023/09/05 03:06:40;;;;;;;6.25;4.85;;;17.90;99.90;;;;;;5056408;28;20205;-53
2023/09/05 03:09:05;;;;;;;5.13;4.63;;;17.80;99.90;;;;;;5056327;28;20171;-51
2023/09/05 03:11:32;;;;;;;5.13;4.72;;;17.80;99.90;;;;;;5056485;28;20270;-50
2023/09/05 03:13:57;;;;;;;6.47;5.07;;;17.80;99.90;;;;;;5056157;28;20498;-54
2023/09/05 03:16:23;;;;;;;4.93;4.45;;;17.70;99.90;;;;;;5056050;28;20232;-50
2023/09/05 03:18:49;;;;;;;4.72;4.28;;;17.70;99.90;;;;;;5056137;28;20520;-53
2023/09/05 03:21:16;;;;;;;6.78;4.70;;;17.70;99.90;;;;;;5056211;28;20227;-51
2023/09/05 03:23:41;;;;;;;6.38;4.60;;;17.80;99.90;;;;;;5056058;28;20256;-52
2023/09/05 03:26:08;;;;;;;5.15;4.43;;;17.80;99.90;;;;;;5055962;28;20175;-53
2023/09/05 03:28:45;;;;;;;4.82;4.40;;;17.70;99.90;;;;;;5055836;28;20195;-50
2023/09/05 03:31:11;;;;;;;6.43;4.63;;;17.60;99.90;;;;;;5055714;28;20171;-52
2023/09/05 03:33:37;;;;;;;5.10;4.60;;;17.70;99.90;;;;;;5055879;28;20640;-53
2023/09/05 03:36:05;;;;;;;6.60;4.78;;;17.60;99.90;;;;;;5055791;28;20167;-52
2023/09/05 03:38:34;;;;;;;6.45;4.30;;;17.70;99.90;;;;;;5055666;28;20302;-52
2023/09/05 03:41:00;;;;;;;5.03;4.35;;;17.70;99.90;;;;;;5055663;28;20301;-52
2023/09/05 03:43:26;;;;;;;5.82;4.40;;;17.70;99.90;;;;;;5055557;28;20270;-54
2023/09/05 03:45:51;;;;;;;5.15;4.00;;;17.80;99.90;;;;;;5055577;28;20617;-52
2023/09/05 03:48:17;;;;;;;5.30;4.22;;;17.80;99.90;;;;;;5055601;28;20187;-54
2023/09/05 03:50:43;;;;;;;4.93;3.90;;;17.70;99.90;;;;;;5055573;28;20178;-50
2023/09/05 03:53:08;;;;;;;4.60;3.90;;;17.80;99.90;;;;;;5055641;28;20632;-52
2023/09/05 03:55:34;;;;;;;5.90;3.88;;;17.70;99.90;;;;;;5055406;28;20265;-50
2023/09/05 03:58:02;;;;;;;5.82;4.10;;;17.70;99.90;;;;;;5055287;28;20532;-52
2023/09/05 04:00:29;;;;;;;4.53;3.92;;;17.70;99.90;;;;;;5055397;28;20284;-53
2023/09/05 04:02:55;;;;;;;5.10;3.97;;;17.70;99.90;;;;;;5055338;28;20172;-52
2023/09/05 04:05:21;;;;;;;7.00;4.30;;;17.80;99.90;;;;;;5055312;28;20202;-54
2023/09/05 04:07:47;;;;;;;5.95;4.28;;;17.80;99.90;;;;;;5055227;28;20628;-52
2023/09/05 04:10:13;;;;;;;5.95;4.15;;;17.80;99.90;;;;;;5055082;28;20180;-51
2023/09/05 04:12:39;;;;;;;4.30;3.90;;;17.70;99.90;;;;;;5055221;28;20184;-52
2023/09/05 04:15:05;;;;;;;3.90;3.60;;;17.70;99.90;;;;;;5054949;28;20564;-53
2023/09/05 04:17:31;;;;;;;4.80;4.00;;;17.60;99.90;;;;;;5055111;28;20171;-53
2023/09/05 04:19:57;;;;;;;5.10;4.25;;;17.70;99.90;;;;;;5054845;28;20241;-52
2023/09/05 04:22:24;;;;;;;4.25;3.85;;;17.60;99.90;;;;;;5054853;28;20202;-51
2023/09/05 04:24:56;;;;;;;7.03;3.97;;;17.50;99.90;;;;;;5054854;28;20167;-53
2023/09/05 04:27:23;;;;;;;4.10;3.70;;;17.60;99.90;;;;;;5054721;28;20182;-52
2023/09/05 04:29:54;;;;;;;4.05;3.63;;;17.60;99.90;;;;;;5054891;28;20171;-52
2023/09/05 04:32:27;;;;;;;3.97;3.67;;;17.50;99.90;;;;;;5054787;28;20636;-53
2023/09/05 04:34:57;;;;;;;4.70;3.78;;;17.50;99.90;;;;;;5054651;28;20182;-52
2023/09/05 04:37:23;;;;;;;5.32;3.70;;;17.50;99.90;;;;;;5054526;28;20175;-51
2023/09/05 04:39:49;;;;;;;5.60;4.25;;;17.60;99.90;;;;;;5054356;28;20199;-47
2023/09/05 04:42:14;;;;;;;5.70;3.70;;;17.50;99.90;;;;;;5054615;28;20171;-51
2023/09/05 04:44:40;;;;;;;7.30;4.03;;;17.50;99.90;;;;;;5054623;28;20567;-51
2023/09/05 04:47:28;;;;;;;4.05;3.35;;;17.40;99.90;;;;;;5054477;28;20176;-51
2023/09/05 04:49:58;;;;;;;6.13;3.72;;;17.40;99.90;;;;;;5054312;28;20205;-50
2023/09/05 04:52:28;;;;;;;4.80;3.75;;;17.40;99.90;;;;;;5054238;28;20183;-52
2023/09/05 04:54:55;;;;;;;5.68;4.13;;;17.50;99.90;;;;;;5054519;28;20202;-52
2023/09/05 04:57:21;;;;;;;4.75;4.07;;;17.50;99.90;;;;;;5053836;28;20180;-46
2023/09/05 04:59:53;;;;;;;5.32;4.05;;;17.50;99.90;;;;;;5054192;28;20257;-45
2023/09/05 05:02:19;;;;;;;5.80;3.50;;;17.50;99.90;;;;;;5054181;28;20183;-48
2023/09/05 05:04:45;;;;;;;4.13;3.72;;;17.50;99.90;;;;;;5053074;28;20686;-48
2023/09/05 05:07:11;;;;;;;6.15;4.13;;;17.60;99.90;;;;;;5054422;28;20183;-48
2023/09/05 05:09:40;;;;;;;5.13;3.97;;;17.60;99.90;;;;;;5054098;28;20275;-48
2023/09/05 05:12:07;;;;;;;4.63;4.10;;;17.60;99.90;;;;;;5053818;28;20705;-49
2023/09/05 05:14:33;;;;;;;5.38;3.75;;;17.60;99.90;;;;;;5053810;28;20213;-50
2023/09/05 05:16:58;;;;;;;4.43;3.83;;;17.60;99.90;;;;;;5053896;28;20175;-53
2023/09/05 05:19:24;;;;;;;5.55;3.80;;;17.60;99.90;;;;;;5053312;28;20199;-53
2023/09/05 05:21:51;;;;;;;5.43;4.18;;;17.60;99.90;;;;;;5052954;28;20266;-52
2023/09/05 05:24:16;;;;;;;5.72;3.67;;;17.60;99.90;;;;;;5053002;28;20179;-52
2023/09/05 05:26:43;;;;;;;5.97;3.85;;;17.70;99.90;;;;;;5053037;28;20743;-51
2023/09/05 05:29:12;;;;;;;4.82;3.67;;;17.70;99.90;;;;;;5052954;28;20175;-53
2023/09/05 05:31:41;;;;;;;5.60;3.88;;;17.60;99.90;;;;;;5052851;28;20167;-53
2023/09/05 05:34:07;;;;;;;5.55;4.07;;;17.60;99.90;;;;;;5052627;28;20532;-52
2023/09/05 05:36:33;;;;;;;6.00;4.20;;;17.50;99.90;;;;;;5052868;28;20178;-52
2023/09/05 05:38:59;;;;;;;5.53;3.90;;;17.50;99.90;;;;;;5052790;28;20211;-54
2023/09/05 05:41:26;;;;;;;7.25;4.25;;;17.50;99.90;;;;;;5052727;28;20237;-53
2023/09/05 05:43:52;;;;;;;4.60;3.75;;;17.60;99.90;;;;;;5052642;28;20176;-53
2023/09/05 05:46:18;;;;;;;5.47;4.35;;;17.70;99.90;;;;;;5052605;28;20544;-54
2023/09/05 05:48:44;;;;;;;4.15;3.60;;;17.70;99.90;;;;;;5052269;28;20575;-53
2023/09/05 05:51:11;;;;;;;6.32;4.30;;;17.80;99.90;;;;;;5052656;28;20258;-52
2023/09/05 05:53:37;;;;;;;5.57;4.28;;;17.80;99.90;;;;;;5052689;28;20171;-53
2023/09/05 05:56:03;;;;;;;4.35;3.80;;;17.70;99.90;;;;;;5052580;28;20172;-52
2023/09/05 05:58:29;;;;;;;5.00;4.07;;;17.80;99.90;;;;;;5052318;28;20186;-53
2023/09/05 06:00:55;;;;;;;8.30;4.40;;;17.90;99.90;;;;;;5052402;28;20544;-54
2023/09/05 06:03:21;;;;;;;6.15;4.30;;;17.90;99.90;;;;;;5052263;28;20175;-52
2023/09/05 06:05:48;;;;;;;6.40;4.30;;;17.90;99.90;;;;;;5052526;28;20187;-51
2023/09/05 06:08:14;;;;;;;5.78;3.92;;;18.00;99.90;;;;;;5051114;28;20187;-53
2023/09/05 06:10:40;;;;;;;5.15;3.92;;;18.20;99.90;;;;;;5052346;28;20171;-53
2023/09/05 06:13:06;;;;;;;5.32;3.95;;;18.30;99.90;;;;;;5052237;28;20313;-53
2023/09/05 06:15:35;;;;;;;5.07;4.32;;;18.60;99.90;;;;;;5052226;28;20194;-53
2023/09/05 06:18:01;;;;;;;4.65;3.90;;;18.60;99.90;;;;;;5052066;28;20647;-52
2023/09/05 06:20:28;;;;;;;7.70;4.38;;;18.80;99.90;;;;;;5013905;28;1102394;-54
2023/09/05 06:22:54;;;;;;;5.03;3.55;;;19.00;99.90;;;;;;5053071;28;20175;-51
2023/09/05 06:25:21;;;;;;;4.80;4.00;;;19.10;99.90;;;;;;5052884;28;20522;-51
2023/09/05 06:27:47;;;;;;;4.50;3.65;;;19.20;99.90;;;;;;5052950;28;20183;-53
2023/09/05 06:30:13;;;;;;;6.28;3.67;;;19.20;99.90;;;;;;5052770;28;20187;-53
2023/09/05 06:32:39;;;;;;;6.32;4.20;;;19.20;99.90;;;;;;5053052;28;20541;-54
2023/09/05 06:35:06;;;;;;;6.35;3.60;;;19.30;99.90;;;;;;5053016;28;20634;-51
2023/09/05 06:37:33;;;;;;;6.97;3.72;;;19.30;99.90;;;;;;5052944;28;20171;-54
2023/09/05 06:40:00;;;;;;;4.53;3.60;;;19.40;99.90;;;;;;5052622;28;20702;-54
2023/09/05 06:42:26;;;;;;;5.78;3.80;;;19.50;99.90;;;;;;5052739;28;20568;-53
2023/09/05 06:44:52;;;;;;;4.63;3.70;;;19.60;99.90;;;;;;5052681;28;20266;-54
2023/09/05 06:47:18;;;;;;;5.43;3.50;;;19.50;99.90;;;;;;5052692;28;20592;-52
2023/09/05 06:49:43;;;;;;;5.68;3.95;;;19.50;99.90;;;;;;5052858;28;20271;-51
2023/09/05 06:52:09;;;;;;;6.13;3.80;;;19.60;99.90;;;;;;5052777;28;20172;-49
2023/09/05 06:54:35;;;;;;;5.90;3.55;;;19.60;99.90;;;;;;5052643;28;20175;-53
2023/09/05 06:57:01;;;;;;;5.68;3.72;;;19.60;99.90;;;;;;5052540;28;20188;-51
2023/09/05 06:59:27;;;;;;;6.63;4.00;;;19.60;99.90;;;;;;5052529;28;20195;-51
2023/09/05 07:01:52;;;;;;;4.57;3.70;;;19.70;99.90;;;;;;5053022;28;20211;-53
2023/09/05 07:04:18;;;;;;;5.68;3.75;;;19.70;99.90;;;;;;5052731;28;20180;-50
2023/09/05 07:06:45;;;;;;;5.43;3.30;;;19.70;99.90;;;;;;5052668;28;20211;-50
2023/09/05 07:09:11;;;;;;;7.70;3.72;;;19.80;99.90;;;;;;5052697;28;20297;-52
2023/09/05 07:11:36;;;;;;;5.32;3.30;;;19.90;99.90;;;;;;5052490;28;20194;-49
2023/09/05 07:14:03;;;;;;;5.78;3.72;;;19.90;99.90;;;;;;5052426;28;20176;-52
2023/09/05 07:16:29;;;;;;;3.92;3.38;;;20.00;99.90;;;;;;5052396;28;20179;-54
2023/09/05 07:18:55;;;;;;;5.38;3.28;;;20.00;99.90;;;;;;5052603;28;20207;-54
2023/09/05 07:21:20;;;;;;;5.25;3.30;;;20.10;99.90;;;;;;5054501;28;20231;-49
2023/09/05 07:23:46;;;;;;;4.20;2.83;;;20.20;99.90;;;;;;5056079;28;20179;-51
2023/09/05 07:26:11;;;;;;;5.10;3.10;;;20.30;99.90;;;;;;5056014;28;20187;-53
2023/09/05 07:28:37;;;;;;;5.75;3.05;;;20.40;99.90;;;;;;5055916;28;20187;-50
2023/09/05 07:31:03;;;;;;;3.80;3.03;;;20.50;99.90;;;;;;5055725;28;20180;-51
2023/09/05 07:33:29;;;;;;;4.90;2.72;;;20.70;99.90;;;;;;5055971;28;20628;-49
2023/09/05 07:35:55;;;;;;;3.60;2.95;;;20.80;99.90;;;;;;5055777;28;20183;-52
2023/09/05 07:38:23;;;;;;;4.40;3.10;;;21.00;99.90;;;;;;5055599;28;20175;-53
2023/09/05 07:41:03;;;;;;;5.57;3.08;;;21.00;99.90;;;;;;5055746;28;20211;-51
2023/09/05 07:43:29;;;;;;;4.68;3.03;;;21.20;99.90;;;;;;5055512;28;20559;-50
2023/09/05 07:45:54;;;;;;;6.47;3.13;;;21.30;99.90;;;;;;5055774;28;20167;-54
2023/09/05 07:48:20;;;;;;;4.60;2.80;;;21.40;99.90;;;;;;5055735;28;20172;-53
2023/09/05 07:50:46;;;;;;;5.75;3.10;;;21.50;99.90;;;;;;5055886;28;20652;-53
2023/09/05 07:53:13;;;;;;;4.07;2.83;;;21.70;99.90;;;;;;5055243;28;20514;-54
2023/09/05 07:55:39;;;;;;;5.00;3.00;;;21.60;99.90;;;;;;5055452;28;20187;-53
2023/09/05 07:58:04;;;;;;;3.80;2.95;;;21.70;99.90;;;;;;5055305;28;20543;-53
2023/09/05 08:00:30;;;;;;;5.90;3.00;;;21.90;99.90;;;;;;5055418;28;20207;-52
2023/09/05 08:02:56;;;;;;;4.43;3.10;;;21.90;99.90;;;;;;5055355;28;20540;-54
2023/09/05 08:05:21;;;;;;;4.18;2.95;;;21.90;99.90;;;;;;5055333;28;20171;-53
2023/09/05 08:07:48;;;;;;;5.75;2.78;;;21.90;99.90;;;;;;5055232;28;20262;-52
2023/09/05 08:10:14;;;;;;;4.82;2.70;;;22.20;99.90;;;;;;5055033;28;20637;-54
2023/09/05 08:12:39;;;;;;;4.78;2.80;;;22.40;99.90;;;;;;5055028;28;20179;-53
2023/09/05 08:15:05;;;;;;;4.20;2.53;;;22.40;99.90;;;;;;5055249;28;20225;-54
2023/09/05 08:17:31;;;;;;;4.50;2.72;;;22.70;99.90;;;;;;5055239;28;20253;-53
2023/09/05 08:19:58;;;;;;;4.70;2.78;;;22.80;99.90;;;;;;5054802;28;20592;-50
2023/09/05 08:22:23;;;;;;;4.03;2.40;;;22.70;99.90;;;;;;5054995;28;20168;-52
2023/09/05 08:24:50;;;;;;;4.38;2.67;;;22.90;99.90;;;;;;5054856;28;20509;-53
2023/09/05 08:27:16;;;;;;;4.80;2.50;;;22.90;99.90;;;;;;5054714;28;20202;-54
2023/09/05 08:29:42;;;;;;;5.53;2.30;;;23.00;99.90;;;;;;5055060;28;20214;-54
2023/09/05 08:32:08;;;;;;;5.43;2.30;;;23.10;99.90;;;;;;5054166;28;20172;-54
2023/09/05 08:34:33;;;;;;;3.58;2.40;;;23.10;99.90;;;;;;5054886;28;20254;-54
2023/09/05 08:36:59;;;;;;;5.38;2.35;;;23.30;99.90;;;;;;5054816;28;20263;-52
2023/09/05 08:39:26;;;;;;;3.65;2.20;;;23.40;99.90;;;;;;5054426;28;20206;-53
2023/09/05 08:41:52;;;;;;;3.25;2.30;;;23.50;99.90;;;;;;5054698;28;20234;-54
2023/09/05 08:44:18;;;;;;;3.42;2.28;;;23.60;99.90;;;;;;5054638;28;20198;-52
2023/09/05 08:46:46;;;;;;;3.92;2.28;;;23.80;99.90;;;;;;5054716;28;20270;-53
2023/09/05 08:49:11;;;;;;;6.43;2.63;;;23.90;99.90;;;;;;5054460;28;20540;-50
2023/09/05 08:51:39;;;;;;;3.72;2.42;;;23.80;99.90;;;;;;5054415;28;20171;-50
2023/09/05 08:54:06;;;;;;;5.13;2.17;;;24.00;99.90;;;;;;5054271;28;20224;-51
2023/09/05 08:56:33;;;;;;;4.68;2.15;;;24.10;99.90;;;;;;5054146;28;20175;-50
2023/09/05 08:59:01;;;;;;;4.07;2.45;;;24.20;99.90;;;;;;5054324;28;20214;-53
2023/09/05 09:01:29;;;;;;;6.65;2.40;;;24.20;99.90;;;;;;5054662;28;20221;-53
2023/09/05 09:03:55;;;;;;;2.97;2.30;;;24.30;99.90;;;;;;5054151;28;20183;-49
2023/09/05 09:06:25;;;;;;;3.80;2.00;;;24.50;99.90;;;;;;5054080;28;20172;-48
2023/09/05 09:08:53;;;;;;;2.15;1.73;;;24.50;99.90;;;;;;5053959;28;20238;-50
2023/09/05 09:11:20;;;;;;;4.57;2.17;;;24.60;99.90;;;;;;5054136;28;20179;-50
2023/09/05 09:13:59;;;;;;;2.75;1.80;;;24.60;99.90;;;;;;5054088;28;20263;-50
2023/09/05 09:16:25;;;;;;;4.63;1.88;;;24.90;99.90;;;;;;5053976;28;20186;-53
2023/09/05 09:19:00;;;;;;;2.70;1.70;;;24.80;99.90;;;;;;5053804;28;20199;-49
2023/09/05 09:21:28;;;;;;;2.55;2.00;;;25.00;99.90;;;;;;5053746;28;20235;-50
2023/09/05 09:24:07;;;;;;;4.10;1.75;;;25.10;99.90;;;;;;5053863;28;20215;-48
2023/09/05 09:26:33;;;;;;;3.53;2.08;;;25.20;99.90;;;;;;5053926;28;20175;-48
2023/09/05 09:29:00;;;;;;;3.63;1.83;;;25.40;99.90;;;;;;5053751;28;20175;-54
2023/09/05 09:31:29;;;;;;;2.60;2.00;;;25.60;99.90;;;;;;5053654;28;20210;-49
2023/09/05 09:33:58;;;;;;;3.35;1.80;;;25.90;99.90;;;;;;5053420;28;20191;-50
2023/09/05 09:36:35;;;;;;;3.08;1.83;;;25.90;99.90;;;;;;5053675;28;20179;-49
2023/09/05 09:39:11;;;;;;;4.50;1.83;;;25.90;99.90;;;;;;5053617;28;20276;-50
2023/09/05 09:41:43;;;;;;;3.47;1.70;;;25.90;99.90;;;;;;5053578;28;20524;-49
2023/09/05 09:44:11;;;;;;;4.22;2.13;;;26.10;99.90;;;;;;5053190;28;20183;-48
2023/09/05 09:46:38;;;;;;;3.78;1.70;;;26.20;99.90;;;;;;5053324;28;20182;-49
2023/09/05 09:49:06;;;;;;;2.65;1.50;;;26.30;99.90;;;;;;5053711;28;20266;-49
2023/09/05 09:51:35;;;;;;;2.60;1.75;;;26.20;99.90;;;;;;5053370;28;20655;-49
2023/09/05 09:54:06;;;;;;;2.17;1.63;;;26.30;99.90;;;;;;5053572;28;20167;-50
2023/09/05 09:56:34;;;;;;;2.58;1.67;;;26.20;99.90;;;;;;5053282;28;20175;-52
2023/09/05 09:59:01;;;;;;;2.10;1.90;;;26.20;99.90;;;;;;5053075;28;20203;-52
2023/09/05 10:01:28;;;;;;;1.98;1.50;;;26.20;99.90;;;;;;5053363;28;20179;-50
2023/09/05 10:03:55;;;;;;;3.28;1.77;;;26.20;99.90;;;;;;5052178;28;20236;-49
2023/09/05 10:06:22;;;;;;;2.00;1.80;;;26.20;99.90;;;;;;5053168;28;20570;-48
2023/09/05 10:08:48;;;;;;;2.47;1.70;;;26.30;99.90;;;;;;5053082;28;20237;-53
2023/09/05 10:11:15;;;;;;;2.92;1.70;;;26.20;99.90;;;;;;5053152;28;20168;-49
2023/09/05 10:13:42;;;;;;;3.78;1.83;;;26.30;99.90;;;;;;5053014;28;20276;-50
2023/09/05 10:16:09;;;;;;;2.35;1.75;;;26.50;99.90;;;;;;5053433;28;20203;-50
2023/09/05 10:18:38;;;;;;;2.35;1.92;;;26.70;99.90;;;;;;5053035;28;20175;-49
2023/09/05 10:21:04;;;;;;;2.10;1.70;;;26.90;99.90;;;;;;5053136;28;20809;-51
2023/09/05 10:23:33;;;;;;;3.03;1.63;;;27.10;99.90;;;;;;5053033;28;20175;-54
2023/09/05 10:26:03;;;;;;;2.83;1.80;;;27.30;99.90;;;;;;5052849;28;20255;-53
2023/09/05 10:28:29;;;;;;;3.72;1.60;;;27.20;99.90;;;;;;5052922;28;20632;-52
2023/09/05 10:31:05;;;;;;;4.07;1.90;;;27.10;99.90;;;;;;5053068;28;20171;-50
2023/09/05 10:33:37;;;;;;;4.03;1.85;;;26.90;99.90;;;;;;5052987;28;20185;-52
2023/09/05 10:36:04;;;;;;;1.60;1.35;;;26.90;99.90;;;;;;5053104;28;20233;-52
2023/09/05 10:38:36;;;;;;;1.90;1.80;;;27.10;99.90;;;;;;5052645;28;20198;-52
2023/09/05 10:41:02;;;;;;;3.53;1.77;;;27.20;99.90;;;;;;5052982;28;20190;-49
2023/09/05 10:43:28;;;;;;;2.88;1.63;;;27.20;99.90;;;;;;5051971;28;20195;-49
2023/09/05 10:45:56;;;;;;;3.15;2.08;;;27.40;99.90;;;;;;5052935;28;20283;-53
2023/09/05 10:48:40;;;;;;;3.50;1.67;;;27.50;99.90;;;;;;5052829;28;20625;-50
2023/09/05 10:51:07;;;;;;;2.22;1.85;;;27.60;99.90;;;;;;5052472;28;20198;-54
2023/09/05 10:53:34;;;;;;;2.60;1.60;;;27.60;99.90;;;;;;5052872;28;20228;-51
2023/09/05 10:56:00;;;;;;;2.97;1.80;;;27.50;99.90;;;;;;5055757;28;20636;-53
2023/09/05 10:58:56;;;;;;;3.17;1.77;;;27.60;99.90;;;;;;5056429;28;20191;-53
2023/09/05 11:01:31;;;;;;;3.60;1.83;;;27.60;99.90;;;;;;5055278;28;20510;-51
2023/09/05 11:04:07;;;;;;;2.63;1.65;;;27.70;99.90;;;;;;5056235;28;20183;-52
2023/09/05 11:06:51;;;;;;;2.17;1.95;;;27.80;99.90;;;;;;5056369;28;20520;-51
2023/09/05 11:09:17;;;;;;;1.90;1.70;;;28.00;99.90;;;;;;5056404;28;20240;-53
2023/09/05 11:11:45;;;;;;;2.83;1.60;;;27.80;99.90;;;;;;5056542;28;20171;-53
2023/09/05 11:14:11;;;;;;;2.95;1.40;;;27.80;99.90;;;;;;5055987;28;20187;-53
2023/09/05 11:16:47;;;;;;;2.88;2.10;;;28.00;99.90;;;;;;5056239;28;20277;-53
2023/09/05 11:19:42;;;;;;;4.05;1.60;;;28.00;99.90;;;;;;5055904;28;20677;-53
2023/09/05 11:22:23;;;;;;;1.70;1.60;;;28.00;99.90;;;;;;5056036;28;20172;-54
2023/09/05 11:24:51;;;;;;;4.88;2.00;;;28.10;99.90;;;;;;5056131;28;20182;-50
2023/09/05 11:27:22;;;;;;;3.35;1.75;;;28.10;99.90;;;;;;5056138;28;20246;-53
2023/09/05 11:29:49;;;;;;;1.70;1.60;;;28.20;99.90;;;;;;5056023;28;20175;-51
2023/09/05 11:32:15;;;;;;;1.70;1.50;;;28.30;99.90;;;;;;5055859;28;20175;-54
2023/09/05 11:34:42;;;;;;;3.42;1.90;;;28.30;99.90;;;;;;5055706;28;20183;-54
2023/09/05 11:37:09;;;;;;;3.15;1.50;;;28.30;99.90;;;;;;5055632;28;20183;-53
2023/09/05 11:39:34;;;;;;;3.10;1.80;;;28.40;99.90;;;;;;5055724;28;20231;-54
2023/09/05 11:42:00;;;;;;;3.97;2.00;;;28.40;99.90;;;;;;5055817;28;20632;-49
2023/09/05 11:44:39;;;;;;;2.92;1.52;;;28.40;99.90;;;;;;5055702;28;20179;-52
2023/09/05 11:47:06;;;;;;;3.65;1.77;;;28.30;99.90;;;;;;5055767;28;20171;-49
2023/09/05 11:49:34;;;;;;;4.15;2.10;;;28.50;99.90;;;;;;5055448;28;20183;-54
2023/09/05 11:52:00;;;;;;;3.75;1.98;;;28.60;99.90;;;;;;5054450;28;20201;-50
2023/09/05 11:54:32;;;;;;;2.38;1.85;;;28.50;99.90;;;;;;5054246;28;20171;-53
2023/09/05 11:56:59;;;;;;;3.78;1.95;;;28.40;99.90;;;;;;5055341;28;20183;-53
2023/09/05 11:59:25;;;;;;;3.00;1.85;;;28.40;99.90;;;;;;5055258;28;20207;-54
2023/09/05 12:01:54;;;;;;;2.63;1.70;;;28.40;99.90;;;;;;5055287;28;20262;-54
2023/09/05 12:04:20;;;;;;;2.83;2.03;;;28.40;99.90;;;;;;5055119;28;20624;-52
2023/09/05 12:06:49;;;;;;;5.65;1.90;;;28.30;99.90;;;;;;5055466;28;20182;-50
2023/09/05 12:09:15;;;;;;;4.65;2.00;;;28.30;99.90;;;;;;5055278;28;20175;-54
2023/09/05 12:11:41;;;;;;;3.88;1.90;;;28.50;99.90;;;;;;5055180;28;20183;-55
2023/09/05 12:14:07;;;;;;;3.20;1.83;;;28.40;99.90;;;;;;5055051;28;20301;-52
2023/09/05 12:16:33;;;;;;;3.55;1.70;;;28.40;99.90;;;;;;5054931;28;20221;-50
2023/09/05 12:19:03;;;;;;;3.33;1.80;;;28.20;99.90;;;;;;5054782;28;20207;-54
2023/09/05 12:21:42;;;;;;;3.60;1.75;;;28.30;99.90;;;;;;5055011;28;20274;-53
2023/09/05 12:24:22;;;;;;;2.45;1.83;;;28.40;99.90;;;;;;5054920;28;20171;-52
2023/09/05 12:26:59;;;;;;;4.32;2.05;;;28.60;99.90;;;;;;5054774;28;20175;-53
2023/09/05 12:29:40;;;;;;;3.78;2.13;;;28.50;99.90;;;;;;5054675;28;20227;-50
2023/09/05 12:32:06;;;;;;;2.72;1.95;;;28.40;99.90;;;;;;5054924;28;20190;-52
2023/09/05 12:34:32;;;;;;;3.70;1.98;;;28.50;99.90;;;;;;5054498;28;20176;-52
2023/09/05 12:36:57;;;;;;;3.20;1.80;;;28.40;99.90;;;;;;5054708;28;20179;-51
2023/09/05 12:39:23;;;;;;;3.05;1.88;;;28.50;99.90;;;;;;5054549;28;20210;-52
2023/09/05 12:41:50;;;;;;;2.20;1.85;;;28.70;99.90;;;;;;5054465;28;20179;-51
2023/09/05 12:44:16;;;;;;;2.22;1.80;;;28.60;99.90;;;;;;5053400;28;20183;-53
2023/09/05 12:46:42;;;;;;;1.80;1.63;;;28.60;99.90;;;;;;5054529;28;20213;-53
2023/09/05 12:49:10;;;;;;;2.22;1.95;;;28.70;99.90;;;;;;5054457;28;20512;-54
2023/09/05 12:51:36;;;;;;;2.35;2.13;;;28.70;99.90;;;;;;5054388;28;20230;-55